»·PEaware :: N172SP KLAS-KIFP

N172SP :: KLAS-KIFP

FLIGHT INFORMATION

Flight Status: Arrived
Operator: Privately registered:
United States
More flights under this callsign
Pilot: Alan C. (18866)
Aircraft: CESSNA 172 SKYHAWK
(C172)
More flights by this aircraft type
Origin: KLAS McCarran Intl
United States
Destination: KIFP Laughlin/Bullhead Intl
United States
More flights between these airports :: More routes between these airports
Route:
File this flight plan on PilotEdge
Remarks:
Altitude:
(Current/Filed)
5,500ft
Speed:
(Current/Filed)
115kts
Departed: 05-Aug-18 06:01 PM
Arrived: 05-Aug-18 06:39 PM
Distance/Time
Traveled:
59nm/0:38
Distance/Time
To Go:
Arrived

Flight Plot

Page will automatically refresh every two minutes.


Map Options




Map Legend


Flown Route
Filed Route
Departure Airport
Arrival Airport
Navaid (VOR, NDB)
Fix

Horizontal Profiles

Position Reports

Time Latitude Longitude Heading Altitude Ground
Speed
05-Aug-18 17:52 36.085989 -115.168304 91 2154ft 0kts
05-Aug-18 17:53 36.085989 -115.168304 91 2154ft 0kts
05-Aug-18 17:54 36.085989 -115.168299 92 2154ft 0kts
05-Aug-18 17:55 36.085705 -115.167402 113 2151ft 2kts
05-Aug-18 17:56 36.086533 -115.166350 23 2145ft 5kts
05-Aug-18 17:57 36.088971 -115.164964 23 2135ft 13kts
05-Aug-18 17:58 36.093092 -115.162602 25 2115ft 18kts
05-Aug-18 17:59 36.097897 -115.159855 24 2097ft 18kts
05-Aug-18 18:00 36.099856 -115.157480 83 2085ft 0kts
05-Aug-18 18:01 36.098823 -115.156910 207 2084ft 33kts
05-Aug-18 18:02 36.076868 -115.162264 189 2567ft 97kts
05-Aug-18 18:03 36.051957 -115.164156 188 3476ft 79kts
05-Aug-18 18:04 36.033547 -115.164452 188 4385ft 56kts
05-Aug-18 18:05 36.017160 -115.164316 188 5009ft 66kts
05-Aug-18 18:06 36.000849 -115.148099 133 5523ft 100kts
05-Aug-18 18:07 35.983413 -115.117991 133 5500ft 105kts
05-Aug-18 18:08 35.966680 -115.089169 133 5495ft 102kts
05-Aug-18 18:09 35.945216 -115.067053 155 5489ft 103kts
05-Aug-18 18:10 35.916294 -115.047329 156 5506ft 126kts
05-Aug-18 18:11 35.885516 -115.027357 158 5484ft 128kts
05-Aug-18 18:12 35.853947 -115.006994 157 5482ft 128kts
05-Aug-18 18:13 35.822270 -114.986579 158 5480ft 128kts
05-Aug-18 18:14 35.790995 -114.966444 157 5475ft 123kts
05-Aug-18 18:15 35.762039 -114.947868 157 5470ft 113kts
05-Aug-18 18:16 35.734373 -114.930096 158 5470ft 112kts
05-Aug-18 18:17 35.706820 -114.912407 158 5471ft 111kts
05-Aug-18 18:18 35.679153 -114.894646 158 5472ft 112kts
05-Aug-18 18:19 35.651346 -114.876970 158 5466ft 112kts
05-Aug-18 18:20 35.623413 -114.859916 159 5457ft 112kts
05-Aug-18 18:21 35.595717 -114.842566 158 5447ft 111kts
05-Aug-18 18:22 35.571942 -114.817153 140 5433ft 115kts
05-Aug-18 18:23 35.549371 -114.788629 141 5281ft 120kts
05-Aug-18 18:24 35.525636 -114.759051 141 4884ft 122kts
05-Aug-18 18:25 35.501729 -114.729388 141 4485ft 122kts
05-Aug-18 18:26 35.477851 -114.699949 141 4087ft 122kts
05-Aug-18 18:27 35.453854 -114.670605 141 3688ft 122kts
05-Aug-18 18:28 35.429783 -114.641419 141 3289ft 122kts
05-Aug-18 18:29 35.399657 -114.626620 165 2890ft 117kts
05-Aug-18 18:30 35.368865 -114.613976 165 2490ft 117kts
05-Aug-18 18:31 35.338247 -114.601552 165 2219ft 109kts
05-Aug-18 18:32 35.307764 -114.591957 169 2222ft 119kts
05-Aug-18 18:33 35.276534 -114.580794 168 1933ft 112kts
05-Aug-18 18:34 35.251840 -114.567369 170 1703ft 85kts
05-Aug-18 18:35 35.228711 -114.562536 181 1491ft 84kts
05-Aug-18 18:36 35.210069 -114.562132 181 1383ft 46kts
05-Aug-18 18:37 35.197806 -114.561790 190 1245ft 44kts
05-Aug-18 18:38 35.185742 -114.561542 180 1021ft 42kts
05-Aug-18 18:39 35.173762 -114.560723 183 796ft 42kts
05-Aug-18 18:40 35.162364 -114.559993 175 638ft 35kts
05-Aug-18 18:41 35.157291 -114.559538 177 654ft 25kts
05-Aug-18 18:42 35.155929 -114.558190 82 672ft 8kts
05-Aug-18 18:43 35.157271 -114.556176 109 685ft 0kts
05-Aug-18 18:44 35.157251 -114.556205 278 685ft 0kts
05-Aug-18 18:45 35.217206 -114.562606 182 1410ft 74kts

Navigation Log

Ident Type
1. KLAS Airport
2. KIFP Airport